Time;durP1;ratioP1;P1;durP2;ratioP2;P2;SDS_P1;SDS_P2;PMS_P1;PMS_P2;Temp;Humidity;BMP_temperature;BMP_pressure;BME280_temperature;BME280_humidity;BME280_pressure;Samples;Min_cycle;Max_cycle;Signal;HPM_P1;HPM_P2
2021/12/26 00:00:29;;;;;;;;;80.75;72.00;13.50;81.50;;;;;;5074549;28;8758;-66
2021/12/26 00:02:55;;;;;;;;;72.00;59.75;13.40;82.90;;;;;;5074618;28;8762;-65
2021/12/26 00:05:22;;;;;;;;;73.25;61.00;13.30;83.40;;;;;;5074524;28;8754;-65
2021/12/26 00:07:48;;;;;;;;;73.75;60.00;13.30;83.50;;;;;;5074327;28;8852;-64
2021/12/26 00:10:17;;;;;;;;;69.50;57.50;13.50;81.80;;;;;;5074600;28;8806;-66
2021/12/26 00:12:43;;;;;;;;;73.00;60.50;13.60;80.80;;;;;;5074629;28;8786;-67
2021/12/26 00:15:09;;;;;;;;;68.50;56.75;13.80;79.90;;;;;;5074360;28;8758;-66
2021/12/26 00:17:35;;;;;;;;;68.00;55.50;13.40;82.80;;;;;;5074518;28;8762;-66
2021/12/26 00:20:02;;;;;;;;;69.75;57.75;13.00;86.20;;;;;;5074632;28;9451;-66
2021/12/26 00:22:28;;;;;;;;;75.00;61.00;13.00;85.50;;;;;;5066316;28;8784;-63
2021/12/26 00:24:54;;;;;;;;;82.75;74.00;13.10;85.60;;;;;;5054545;28;8764;-64
2021/12/26 00:27:20;;;;;;;;;82.00;74.75;13.20;84.30;;;;;;5054230;28;9448;-64
2021/12/26 00:29:47;;;;;;;;;83.75;79.50;13.30;83.40;;;;;;5054148;28;8822;-65
2021/12/26 00:32:13;;;;;;;;;80.00;72.50;13.30;84.30;;;;;;5054238;28;8784;-64
2021/12/26 00:34:39;;;;;;;;;73.00;60.25;13.40;82.30;;;;;;5054226;28;8853;-64
2021/12/26 00:37:06;;;;;;;;;72.50;62.25;13.30;82.30;;;;;;5054378;28;9477;-66
2021/12/26 00:39:33;;;;;;;;;73.50;60.50;13.20;83.80;;;;;;5054378;28;8775;-64
2021/12/26 00:41:59;;;;;;;;;69.25;57.00;13.20;83.80;;;;;;5052318;28;8779;-64
2021/12/26 00:44:26;;;;;;;;;72.50;58.25;13.00;84.90;;;;;;5054224;28;8744;-64
2021/12/26 00:46:53;;;;;;;;;68.50;55.75;13.10;85.40;;;;;;5054127;28;8841;-65
2021/12/26 00:49:23;;;;;;;;;71.00;58.00;13.00;85.00;;;;;;5054106;28;8870;-65
2021/12/26 00:51:50;;;;;;;;;66.25;54.00;12.90;86.40;;;;;;5054321;28;8775;-65
2021/12/26 00:54:17;;;;;;;;;60.75;50.75;12.90;86.90;;;;;;5054297;28;8891;-64
2021/12/26 00:56:43;;;;;;;;;63.50;53.25;12.90;86.10;;;;;;5053933;28;8784;-63
2021/12/26 00:59:09;;;;;;;;;60.25;50.00;12.90;86.20;;;;;;5056173;28;8779;-65
2021/12/26 01:01:35;;;;;;;;;59.00;49.75;13.00;85.50;;;;;;5058183;28;8878;-63
2021/12/26 01:04:00;;;;;;;;;58.50;49.00;13.00;84.90;;;;;;5058181;28;8784;-66
2021/12/26 01:06:27;;;;;;;;;62.00;51.50;13.20;83.90;;;;;;5057889;28;9379;-65
2021/12/26 01:08:54;;;;;;;;;58.50;49.75;13.30;82.00;;;;;;5057725;28;8937;-66
2021/12/26 01:11:36;;;;;;;;;60.25;50.75;13.10;83.90;;;;;;5057640;28;8830;-66
2021/12/26 01:14:06;;;;;;;;;56.50;48.00;13.20;82.80;;;;;;5057903;28;9449;-65
2021/12/26 01:16:33;;;;;;;;;58.00;49.00;13.20;83.00;;;;;;5058018;28;8861;-65
2021/12/26 01:19:06;;;;;;;;;65.50;54.00;13.10;83.40;;;;;;5057654;28;8779;-66
2021/12/26 01:21:32;;;;;;;;;64.00;53.50;12.90;85.50;;;;;;5057664;28;8764;-67
2021/12/26 01:24:06;;;;;;;;;63.50;51.75;12.90;85.10;;;;;;5057591;28;8776;-67
2021/12/26 01:26:33;;;;;;;;;65.25;54.25;12.70;88.20;;;;;;5057882;28;8755;-66
2021/12/26 01:29:00;;;;;;;;;50.75;44.00;12.60;88.90;;;;;;5057474;28;8770;-66
2021/12/26 01:31:26;;;;;;;;;59.50;50.50;12.80;87.80;;;;;;5057447;28;9422;-66
2021/12/26 01:34:04;;;;;;;;;66.75;52.25;12.90;86.20;;;;;;5057414;28;8768;-66
2021/12/26 01:36:33;;;;;;;;;68.25;55.25;13.10;84.40;;;;;;5039810;28;8792;-65
2021/12/26 01:39:01;;;;;;;;;60.75;50.00;12.90;84.80;;;;;;5057653;28;8800;-65
2021/12/26 01:41:27;;;;;;;;;61.00;51.00;12.80;86.40;;;;;;5057277;28;8761;-65
2021/12/26 01:43:57;;;;;;;;;63.00;52.00;12.90;86.50;;;;;;5057185;28;8784;-65
2021/12/26 01:46:26;;;;;;;;;58.75;49.75;12.70;86.80;;;;;;5057508;28;9505;-64
2021/12/26 01:49:12;;;;;;;;;59.25;50.00;12.80;87.60;;;;;;5057143;28;8857;-67
2021/12/26 01:51:40;;;;;;;;;63.25;53.00;13.00;84.90;;;;;;5056951;28;8816;-66
2021/12/26 01:54:09;;;;;;;;;57.25;48.25;12.90;85.10;;;;;;5057261;28;9433;-66
2021/12/26 01:56:40;;;;;;;;;65.00;53.75;12.90;85.80;;;;;;5057227;28;8775;-65
2021/12/26 01:59:08;;;;;;;;;59.00;50.25;12.90;85.50;;;;;;5057261;28;8886;-66
2021/12/26 02:01:34;;;;;;;;;57.75;48.75;13.00;85.20;;;;;;5057254;28;8862;-65
2021/12/26 02:04:02;;;;;;;;;53.50;45.25;12.70;87.60;;;;;;5056880;28;8787;-67
2021/12/26 02:06:28;;;;;;;;;61.50;51.00;12.40;90.70;;;;;;5057061;28;8790;-65
2021/12/26 02:08:55;;;;;;;;;59.75;51.00;12.60;89.60;;;;;;5056685;28;9617;-66
2021/12/26 02:11:21;;;;;;;;;58.50;49.75;12.80;87.50;;;;;;5055722;28;8826;-64
2021/12/26 02:13:47;;;;;;;;;58.25;50.00;12.90;86.20;;;;;;5056673;28;8879;-66
2021/12/26 02:16:13;;;;;;;;;57.00;48.50;12.90;85.90;;;;;;5056573;28;8780;-65
2021/12/26 02:18:40;;;;;;;;;63.25;53.00;12.90;85.90;;;;;;5056560;28;8756;-66
2021/12/26 02:23:46;;;;;;;;;58.00;49.00;12.70;87.50;;;;;;5056821;28;8860;-67
2021/12/26 02:28:41;;;;;;;;;56.50;48.00;12.90;86.30;;;;;;5056633;28;8752;-66
2021/12/26 02:31:07;;;;;;;;;50.25;43.75;12.90;85.30;;;;;;5056505;28;8846;-66
2021/12/26 02:33:33;;;;;;;;;52.50;45.25;12.90;84.60;;;;;;5056579;28;8772;-64
2021/12/26 02:35:59;;;;;;;;;48.00;42.00;12.90;85.80;;;;;;5056247;28;8795;-68
2021/12/26 02:38:25;;;;;;;;;51.75;44.25;13.20;82.90;;;;;;5056518;28;8804;-66
2021/12/26 02:40:53;;;;;;;;;44.00;39.25;13.30;81.70;;;;;;5056153;28;8799;-64
2021/12/26 02:43:21;;;;;;;;;52.00;44.50;13.20;81.70;;;;;;5056165;28;8732;-65
2021/12/26 02:45:47;;;;;;;;;45.00;39.25;13.30;81.50;;;;;;5056038;28;8798;-67
2021/12/26 02:48:14;;;;;;;;;46.50;41.00;13.10;82.40;;;;;;5055975;28;8779;-64
2021/12/26 02:50:41;;;;;;;;;44.25;39.75;13.10;83.40;;;;;;5055883;28;8885;-67
2021/12/26 02:53:09;;;;;;;;;45.00;39.00;12.90;84.40;;;;;;5056177;28;9509;-67
2021/12/26 02:55:35;;;;;;;;;46.75;40.00;12.90;84.50;;;;;;5055862;28;8768;-66
2021/12/26 02:58:04;;;;;;;;;39.25;37.00;12.90;84.90;;;;;;5056077;28;8764;-67
2021/12/26 03:00:34;;;;;;;;;41.25;37.00;12.70;85.90;;;;;;5055826;28;8850;-65
2021/12/26 03:03:04;;;;;;;;;44.00;38.25;12.90;85.10;;;;;;5055856;28;8733;-66
2021/12/26 03:05:33;;;;;;;;;37.50;35.50;12.80;85.50;;;;;;5055956;28;8789;-67
2021/12/26 03:07:59;;;;;;;;;46.25;40.25;12.80;86.00;;;;;;5055524;28;8846;-66
2021/12/26 03:10:27;;;;;;;;;44.75;39.00;12.80;85.60;;;;;;5055734;28;8823;-67
2021/12/26 03:12:58;;;;;;;;;48.00;41.75;13.10;83.60;;;;;;5055764;28;8768;-65
2021/12/26 03:15:26;;;;;;;;;50.25;43.50;13.00;84.00;;;;;;5055469;28;8779;-67
2021/12/26 03:17:52;;;;;;;;;58.50;49.25;12.90;84.20;;;;;;5055415;28;8760;-65
2021/12/26 03:20:23;;;;;;;;;56.50;48.25;12.80;85.20;;;;;;5055451;28;8768;-66
2021/12/26 03:22:49;;;;;;;;;57.25;48.25;12.90;84.40;;;;;;5055533;28;8768;-64
2021/12/26 03:25:20;;;;;;;;;58.00;48.50;13.00;84.40;;;;;;5055582;28;8858;-63
2021/12/26 03:27:46;;;;;;;;;51.50;43.75;12.90;84.80;;;;;;5055480;28;9426;-65
2021/12/26 03:30:14;;;;;;;;;44.00;39.75;12.80;85.80;;;;;;5055140;28;8800;-65
2021/12/26 03:32:40;;;;;;;;;46.00;40.50;12.80;85.70;;;;;;5055175;28;8902;-67
2021/12/26 03:35:08;;;;;;;;;45.25;38.25;12.70;86.20;;;;;;5055217;28;8787;-65
2021/12/26 03:37:34;;;;;;;;;46.00;39.75;12.80;85.50;;;;;;5037338;28;8819;-66
2021/12/26 03:40:00;;;;;;;;;45.75;40.25;12.80;85.50;;;;;;5037544;28;8857;-64
2021/12/26 03:42:26;;;;;;;;;47.25;41.50;13.00;83.80;;;;;;5055008;28;8764;-64
2021/12/26 03:44:52;;;;;;;;;46.25;40.25;13.00;82.90;;;;;;5054951;28;8775;-65
2021/12/26 03:47:19;;;;;;;;;43.50;37.75;13.10;82.70;;;;;;5054966;28;8764;-65
2021/12/26 03:49:47;;;;;;;;;43.75;39.00;12.90;83.70;;;;;;5054766;28;8756;-65
2021/12/26 03:52:13;;;;;;;;;42.00;37.75;12.80;85.50;;;;;;5054866;28;8765;-65
2021/12/26 03:54:39;;;;;;;;;41.00;37.00;12.90;85.00;;;;;;5054858;28;8842;-65
2021/12/26 03:57:05;;;;;;;;;41.25;38.00;12.80;85.10;;;;;;5054958;28;8826;-66
2021/12/26 03:59:31;;;;;;;;;45.25;40.25;12.90;84.00;;;;;;5054930;28;8771;-67
2021/12/26 04:01:58;;;;;;;;;41.75;38.00;12.90;84.70;;;;;;5054667;28;8806;-66
2021/12/26 04:04:24;;;;;;;;;43.50;38.00;12.90;83.90;;;;;;5054867;28;8803;-64
2021/12/26 04:06:50;;;;;;;;;35.00;34.00;12.80;85.20;;;;;;5054661;28;8775;-64
2021/12/26 04:09:17;;;;;;;;;37.25;35.50;12.80;84.90;;;;;;5054465;28;8835;-65
2021/12/26 04:11:45;;;;;;;;;41.75;38.75;12.80;85.50;;;;;;5054406;28;8843;-65
2021/12/26 04:14:12;;;;;;;;;42.25;38.00;12.90;84.90;;;;;;5054494;28;8782;-66
2021/12/26 04:16:38;;;;;;;;;51.75;43.75;12.90;84.40;;;;;;5054740;28;8772;-67
2021/12/26 04:19:04;;;;;;;;;52.50;45.00;12.90;84.10;;;;;;5054681;28;8861;-67
2021/12/26 04:21:31;;;;;;;;;51.50;44.25;12.80;84.80;;;;;;5054401;28;8788;-67
2021/12/26 04:23:57;;;;;;;;;52.25;44.50;12.90;84.20;;;;;;5054436;28;8764;-64
2021/12/26 04:26:23;;;;;;;;;47.75;41.50;13.00;83.80;;;;;;5036861;28;8767;-66
2021/12/26 04:28:49;;;;;;;;;55.50;46.00;13.00;83.20;;;;;;5054542;28;8768;-66
2021/12/26 04:31:15;;;;;;;;;46.00;41.75;12.90;83.90;;;;;;5054265;28;8889;-66
2021/12/26 04:33:42;;;;;;;;;48.50;42.00;12.90;83.70;;;;;;5053816;28;8834;-69
2021/12/26 04:36:08;;;;;;;;;38.75;35.25;12.80;84.40;;;;;;5054297;28;8760;-65
2021/12/26 04:38:35;;;;;;;;;48.00;41.50;12.80;84.80;;;;;;5054827;28;8806;-65
2021/12/26 04:41:04;;;;;;;;;54.00;46.25;12.60;85.10;;;;;;5055226;28;8823;-67
2021/12/26 04:43:30;;;;;;;;;53.00;44.50;12.80;84.30;;;;;;5067771;28;8776;-66
2021/12/26 04:45:56;;;;;;;;;46.50;40.75;13.00;81.90;;;;;;5054153;28;8780;-65
2021/12/26 04:48:21;;;;;;;;;49.25;42.75;12.90;83.70;;;;;;5055410;28;8756;-64
2021/12/26 04:50:47;;;;;;;;;49.00;42.50;12.50;86.50;;;;;;5074073;28;8790;-67
2021/12/26 04:53:13;;;;;;;;;51.75;44.00;12.40;87.70;;;;;;5074126;28;8762;-64
2021/12/26 04:55:39;;;;;;;;;52.00;45.00;12.60;85.10;;;;;;5074299;28;8936;-65
2021/12/26 04:58:05;;;;;;;;;49.75;43.50;12.70;84.20;;;;;;5074242;28;8766;-66
2021/12/26 05:00:33;;;;;;;;;54.00;45.50;12.60;85.60;;;;;;5074004;28;8873;-64
2021/12/26 05:03:02;;;;;;;;;50.50;43.00;12.60;84.40;;;;;;5074063;28;8758;-66
2021/12/26 05:05:28;;;;;;;;;49.50;42.75;12.60;84.60;;;;;;5074051;28;8838;-65
2021/12/26 05:07:56;;;;;;;;;53.00;44.50;12.80;83.60;;;;;;5073984;28;8809;-65
2021/12/26 05:10:25;;;;;;;;;59.00;49.50;12.70;84.10;;;;;;5074158;28;9032;-65
2021/12/26 05:12:51;;;;;;;;;52.75;44.75;12.70;83.50;;;;;;5063943;28;8788;-65
2021/12/26 05:15:18;;;;;;;;;48.75;43.25;12.80;83.10;;;;;;5053978;28;8820;-67
2021/12/26 05:17:44;;;;;;;;;54.00;45.50;12.70;83.60;;;;;;5054109;28;8890;-67
2021/12/26 05:20:12;;;;;;;;;53.00;45.00;12.90;81.80;;;;;;5054091;28;8775;-67
2021/12/26 05:22:37;;;;;;;;;50.25;42.00;12.80;82.80;;;;;;5053859;28;8772;-67
2021/12/26 05:25:06;;;;;;;;;45.50;40.00;12.40;87.70;;;;;;5053534;28;8795;-67
2021/12/26 05:27:33;;;;;;;;;53.50;45.50;12.60;85.50;;;;;;5073042;28;8770;-66
2021/12/26 05:29:59;;;;;;;;;57.75;48.50;12.90;82.60;;;;;;5073653;28;8887;-66
2021/12/26 05:32:25;;;;;;;;;67.00;55.00;13.10;81.20;;;;;;5067506;28;8784;-65
2021/12/26 05:34:51;;;;;;;;;64.75;54.25;13.00;80.60;;;;;;5062479;28;8783;-65
2021/12/26 05:37:16;;;;;;;;;54.75;46.75;12.90;82.10;;;;;;5053571;28;8820;-67
2021/12/26 05:39:45;;;;;;;;;58.75;50.75;12.90;82.30;;;;;;5064998;28;8880;-67
2021/12/26 05:42:15;;;;;;;;;54.25;47.00;13.10;81.00;;;;;;5070265;28;8784;-67
2021/12/26 05:44:42;;;;;;;;;54.25;46.50;13.00;81.30;;;;;;5053809;28;8748;-66
2021/12/26 05:47:08;;;;;;;;;50.50;43.75;13.00;81.40;;;;;;5057552;28;9739;-65
2021/12/26 05:49:34;;;;;;;;;57.00;48.00;13.00;81.60;;;;;;5077114;28;8868;-69
2021/12/26 05:52:00;;;;;;;;;62.75;52.25;12.80;82.50;;;;;;5077108;28;8770;-66
2021/12/26 05:54:25;;;;;;;;;63.00;52.00;12.80;82.50;;;;;;5077322;28;8769;-65
2021/12/26 05:56:51;;;;;;;;;60.50;46.75;13.00;80.90;;;;;;5077044;28;8785;-68
2021/12/26 05:59:17;;;;;;;;;58.75;50.00;12.80;82.80;;;;;;5076937;28;8784;-66
2021/12/26 06:01:43;;;;;;;;;57.00;47.00;12.50;85.80;;;;;;5076915;28;8796;-66
2021/12/26 06:04:08;;;;;;;;;60.75;50.75;13.00;82.00;;;;;;5077117;28;8774;-67
2021/12/26 06:06:34;;;;;;;;;61.50;51.75;13.00;81.10;;;;;;5076887;28;8762;-67
2021/12/26 06:09:00;;;;;;;;;58.00;49.25;12.80;82.20;;;;;;5076664;28;8841;-67
2021/12/26 06:11:26;;;;;;;;;47.50;41.50;12.70;83.20;;;;;;5076714;28;8924;-67
2021/12/26 06:13:52;;;;;;;;;51.50;44.00;12.70;83.00;;;;;;5076724;28;8781;-67
2021/12/26 06:16:17;;;;;;;;;61.25;51.00;12.50;84.40;;;;;;5076946;28;8789;-66
2021/12/26 06:18:43;;;;;;;;;62.00;53.00;12.40;86.30;;;;;;5076693;28;9392;-67
2021/12/26 06:21:09;;;;;;;;;67.75;55.00;12.40;85.30;;;;;;5076574;28;8801;-67
2021/12/26 06:23:35;;;;;;;;;67.75;57.00;12.30;86.00;;;;;;5076429;28;8758;-67
2021/12/26 06:26:00;;;;;;;;;67.75;55.75;12.30;85.40;;;;;;5076540;28;8750;-67
2021/12/26 06:28:26;;;;;;;;;62.25;52.00;12.20;85.90;;;;;;5076552;28;8770;-67
2021/12/26 06:30:52;;;;;;;;;67.00;55.75;12.30;85.30;;;;;;5076319;28;8890;-67
2021/12/26 06:33:18;;;;;;;;;68.50;56.00;12.30;85.80;;;;;;5076602;28;8758;-65
2021/12/26 06:35:43;;;;;;;;;62.00;52.00;12.10;86.00;;;;;;5076537;28;8800;-67
2021/12/26 06:38:09;;;;;;;;;62.50;52.25;12.30;84.60;;;;;;5076334;28;8802;-65
2021/12/26 06:40:35;;;;;;;;;56.75;48.50;12.30;84.30;;;;;;5076165;28;8871;-66
2021/12/26 06:43:01;;;;;;;;;58.00;48.50;12.30;83.50;;;;;;5076208;28;8750;-65
2021/12/26 06:45:27;;;;;;;;;65.25;54.00;12.20;84.60;;;;;;5076374;28;8885;-65
2021/12/26 06:47:55;;;;;;;;;63.00;53.00;12.20;85.10;;;;;;5076044;28;8794;-65
2021/12/26 06:50:22;;;;;;;;;56.75;48.00;12.50;82.80;;;;;;5076002;28;8797;-65
2021/12/26 06:52:48;;;;;;;;;55.75;47.50;12.50;82.00;;;;;;5076191;28;8758;-65
2021/12/26 06:55:14;;;;;;;;;55.50;47.50;12.50;81.90;;;;;;5075820;28;8746;-65
2021/12/26 06:57:41;;;;;;;;;56.00;48.00;12.50;81.20;;;;;;5075735;28;8769;-66
2021/12/26 07:00:12;;;;;;;;;58.75;50.50;12.50;82.10;;;;;;5075869;28;8774;-65
2021/12/26 07:02:37;;;;;;;;;63.50;53.00;12.40;82.50;;;;;;5076015;28;9435;-65
2021/12/26 07:05:03;;;;;;;;;67.50;55.75;12.20;83.70;;;;;;5075718;28;8831;-65
2021/12/26 07:07:29;;;;;;;;;73.75;60.50;12.20;85.00;;;;;;5075666;28;8794;-66
2021/12/26 07:09:55;;;;;;;;;67.00;54.00;12.10;85.30;;;;;;5075554;28;8879;-65
2021/12/26 07:12:21;;;;;;;;;73.25;61.00;11.90;87.50;;;;;;5075746;28;8762;-65
2021/12/26 07:14:46;;;;;;;;;80.50;65.00;11.90;87.50;;;;;;5075724;28;8758;-65
2021/12/26 07:17:12;;;;;;;;;81.50;68.75;12.00;87.60;;;;;;5075698;28;8754;-65
2021/12/26 07:19:39;;;;;;;;;79.75;67.00;11.80;88.80;;;;;;5075424;28;8761;-65
2021/12/26 07:22:05;;;;;;;;;83.50;70.00;11.90;89.30;;;;;;5075280;28;8758;-65
2021/12/26 07:24:31;;;;;;;;;62.50;51.25;11.90;89.00;;;;;;5057672;28;8854;-65
2021/12/26 07:26:57;;;;;;;;;51.75;44.25;11.70;88.10;;;;;;5075540;28;8774;-65
2021/12/26 07:29:23;;;;;;;;;50.50;43.00;11.50;86.00;;;;;;5075485;28;9476;-65
2021/12/26 07:31:49;;;;;;;;;60.00;49.75;11.40;84.00;;;;;;5057899;28;9754;-64
2021/12/26 07:34:14;;;;;;;;;61.00;48.75;11.10;83.20;;;;;;5075408;28;8864;-65
2021/12/26 07:36:40;;;;;;;;;53.25;44.50;10.80;85.30;;;;;;5075348;28;9537;-64
2021/12/26 07:39:07;;;;;;;;;60.75;48.75;10.90;85.10;;;;;;5075445;28;9460;-65
2021/12/26 07:41:32;;;;;;;;;59.25;47.25;10.80;84.40;;;;;;5075005;28;8774;-65
2021/12/26 07:43:59;;;;;;;;;53.25;44.75;10.70;85.10;;;;;;5075060;28;8774;-65
2021/12/26 07:46:25;;;;;;;;;50.00;44.50;10.80;82.30;;;;;;5075197;28;8876;-66
2021/12/26 07:48:51;;;;;;;;;29.33;28.33;11.00;79.60;;;;;;5074849;28;8884;-66
2021/12/26 07:51:19;;;;;;;;;40.25;38.00;10.10;82.70;;;;;;5074812;28;8806;-65
2021/12/26 07:53:46;;;;;;;;;37.00;33.00;10.10;84.60;;;;;;5074737;28;8770;-66
2021/12/26 07:56:14;;;;;;;;;28.00;26.67;10.30;82.20;;;;;;5068300;28;8971;-66
2021/12/26 07:58:40;;;;;;;;;30.67;30.33;10.20;82.70;;;;;;5064116;28;8773;-67
2021/12/26 08:01:06;;;;;;;;;31.00;30.67;10.00;82.50;;;;;;5067831;28;8773;-66
2021/12/26 08:03:36;;;;;;;;;35.50;31.50;10.00;81.50;;;;;;5066133;28;8782;-66
2021/12/26 08:06:02;;;;;;;;;40.25;36.00;10.20;79.50;;;;;;5054662;28;8753;-66
2021/12/26 08:08:28;;;;;;;;;33.33;33.33;10.20;77.90;;;;;;5056015;28;8832;-66
2021/12/26 08:10:54;;;;;;;;;40.00;37.00;10.60;75.30;;;;;;5065597;28;8875;-65
2021/12/26 08:13:20;;;;;;;;;40.25;38.00;10.40;76.10;;;;;;5063391;28;8760;-65
2021/12/26 08:15:46;;;;;;;;;34.50;33.25;10.40;75.60;;;;;;5063705;28;8773;-70
2021/12/26 08:18:12;;;;;;;;;33.75;32.25;10.20;75.50;;;;;;5057112;28;8900;-64
2021/12/26 08:20:37;;;;;;;;;33.67;32.00;9.80;75.90;;;;;;5064992;28;8892;-63
2021/12/26 08:23:04;;;;;;;;;39.50;34.75;9.60;77.20;;;;;;5060167;28;8780;-67
2021/12/26 08:25:30;;;;;;;;;40.50;37.00;9.30;78.30;;;;;;5074448;28;8770;-67
2021/12/26 08:27:56;;;;;;;;;41.50;37.25;9.40;78.00;;;;;;5074235;28;8812;-66
2021/12/26 08:30:22;;;;;;;;;42.00;39.25;9.40;78.10;;;;;;5074119;28;8786;-68
2021/12/26 08:32:52;;;;;;;;;40.00;35.00;9.60;77.90;;;;;;5074189;28;8758;-67
2021/12/26 08:35:18;;;;;;;;;32.50;30.25;9.40;76.70;;;;;;5073880;28;8753;-67
2021/12/26 08:37:46;;;;;;;;;35.50;32.75;9.10;77.20;;;;;;5074029;28;8921;-67
2021/12/26 08:40:13;;;;;;;;;39.50;35.00;8.80;78.70;;;;;;5074386;28;8769;-67
2021/12/26 08:42:39;;;;;;;;;38.00;34.50;8.70;81.60;;;;;;5074251;28;9533;-68
2021/12/26 08:45:06;;;;;;;;;32.50;30.00;8.80;80.80;;;;;;5074381;28;8754;-67
2021/12/26 08:47:32;;;;;;;;;36.75;35.00;8.70;78.40;;;;;;5074338;28;8878;-67
2021/12/26 08:49:58;;;;;;;;;34.25;31.50;8.50;81.00;;;;;;5053962;28;8768;-67
2021/12/26 08:52:24;;;;;;;;;33.50;29.50;8.70;79.80;;;;;;5053943;28;8784;-67
2021/12/26 08:54:50;;;;;;;;;39.50;32.75;8.40;80.50;;;;;;5066509;28;8850;-68
2021/12/26 08:57:15;;;;;;;;;31.50;31.00;8.20;83.40;;;;;;5074325;28;8795;-66
2021/12/26 08:59:42;;;;;;;;;37.00;34.00;8.30;81.10;;;;;;5073971;28;8750;-65
2021/12/26 09:02:08;;;;;;;;;29.00;26.25;8.20;82.20;;;;;;5074261;28;8785;-67
2021/12/26 09:04:39;;;;;;;;;43.00;36.00;8.30;81.90;;;;;;5074037;28;8773;-67
2021/12/26 09:07:08;;;;;;;;;43.50;39.25;8.30;80.80;;;;;;5073697;28;8766;-66
2021/12/26 09:09:33;;;;;;;;;32.75;32.75;7.80;83.60;;;;;;5056333;28;8837;-66
2021/12/26 09:12:00;;;;;;;;;41.50;32.25;7.80;83.60;;;;;;5074018;28;8802;-68
2021/12/26 09:14:29;;;;;;;;;46.50;40.75;7.40;87.10;;;;;;5071257;28;8778;-65
2021/12/26 09:16:56;;;;;;;;;46.00;40.00;7.40;88.10;;;;;;5073795;28;8746;-65
2021/12/26 09:19:23;;;;;;;;;47.25;41.25;7.40;89.70;;;;;;5074491;28;8843;-65
2021/12/26 09:21:49;;;;;;;;;42.75;38.50;7.60;87.70;;;;;;5077683;28;8766;-66
2021/12/26 09:24:15;;;;;;;;;43.00;36.00;7.70;86.90;;;;;;5077548;28;8835;-65
2021/12/26 09:26:41;;;;;;;;;38.50;35.50;7.30;90.00;;;;;;5077632;28;8774;-65
2021/12/26 09:29:07;;;;;;;;;31.25;31.25;7.40;90.50;;;;;;5076863;28;8786;-66
2021/12/26 09:31:33;;;;;;;;;34.50;31.00;7.70;87.40;;;;;;5077337;28;8802;-65
2021/12/26 09:33:59;;;;;;;;;37.75;35.00;7.90;86.40;;;;;;5077618;28;8766;-66
2021/12/26 09:36:25;;;;;;;;;32.50;29.25;8.00;85.00;;;;;;5077237;28;8797;-64
2021/12/26 09:38:50;;;;;;;;;46.75;40.50;7.90;85.30;;;;;;5077548;28;8824;-66
2021/12/26 09:41:16;;;;;;;;;46.00;38.50;7.90;87.30;;;;;;5077475;28;8797;-66
2021/12/26 09:43:42;;;;;;;;;35.25;32.75;8.20;85.10;;;;;;5076746;28;9380;-66
2021/12/26 09:46:08;;;;;;;;;39.25;35.25;8.30;81.90;;;;;;5077171;28;8754;-66
2021/12/26 09:48:34;;;;;;;;;41.50;37.00;7.90;86.10;;;;;;5077097;28;8974;-66
2021/12/26 09:51:00;;;;;;;;;36.50;34.75;7.90;86.00;;;;;;5077288;28;8809;-65
2021/12/26 09:53:26;;;;;;;;;48.50;41.75;8.00;86.30;;;;;;5077061;28;8777;-66
2021/12/26 09:55:52;;;;;;;;;36.75;36.00;8.20;85.10;;;;;;5077105;28;8774;-66
2021/12/26 09:58:19;;;;;;;;;42.50;37.25;8.10;83.70;;;;;;5076532;28;8758;-66
2021/12/26 10:00:45;;;;;;;;;38.75;36.25;7.70;87.90;;;;;;5077031;28;9463;-64
2021/12/26 10:03:22;;;;;;;;;39.00;37.75;7.00;91.30;;;;;;5076905;28;8780;-67
2021/12/26 10:06:13;;;;;;;;;39.00;36.50;7.10;91.20;;;;;;5056960;28;8756;-66
2021/12/26 10:09:08;;;;;;;;;44.00;41.00;7.40;89.60;;;;;;5056607;28;8844;-66
2021/12/26 10:11:39;;;;;;;;;46.25;38.00;7.90;84.70;;;;;;5056917;28;9469;-67
2021/12/26 10:14:20;;;;;;;;;43.25;38.00;8.00;82.20;;;;;;5070174;28;8786;-68
2021/12/26 10:16:47;;;;;;;;;45.00;39.25;8.20;81.40;;;;;;5069595;28;9463;-66
2021/12/26 10:19:13;;;;;;;;;52.75;42.75;8.00;80.90;;;;;;5076514;28;8824;-66
2021/12/26 10:21:43;;;;;;;;;48.25;40.00;8.20;81.80;;;;;;5059753;28;8798;-65
2021/12/26 10:24:12;;;;;;;;;44.25;39.00;8.00;81.40;;;;;;5056459;28;8764;-66
2021/12/26 10:26:41;;;;;;;;;43.25;37.25;7.80;82.60;;;;;;5056278;28;8763;-68
2021/12/26 10:29:14;;;;;;;;;34.75;34.00;7.50;82.50;;;;;;5055722;28;8752;-65
2021/12/26 10:32:10;;;;;;;;;44.00;37.00;7.30;86.50;;;;;;5055751;28;8875;-67
2021/12/26 10:34:40;;;;;;;;;37.75;36.50;7.40;85.60;;;;;;5056145;28;8842;-68
2021/12/26 10:37:09;;;;;;;;;44.00;40.50;7.40;87.40;;;;;;5056160;28;8862;-68
2021/12/26 10:39:46;;;;;;;;;31.75;29.75;7.50;85.80;;;;;;5066365;28;8769;-69
2021/12/26 10:42:16;;;;;;;;;40.00;37.00;7.80;84.50;;;;;;5076200;28;8750;-68
2021/12/26 10:44:54;;;;;;;;;40.75;35.00;8.00;80.20;;;;;;5075815;28;8754;-69
2021/12/26 10:47:26;;;;;;;;;43.25;38.50;8.00;81.60;;;;;;5076242;28;8853;-69
2021/12/26 10:50:00;;;;;;;;;55.00;48.00;7.80;81.40;;;;;;5075929;28;8778;-68
2021/12/26 10:52:32;;;;;;;;;42.00;38.50;7.30;85.80;;;;;;5075820;28;8780;-68
2021/12/26 10:55:02;;;;;;;;;56.50;44.50;7.40;86.70;;;;;;5075876;28;8811;-68
2021/12/26 10:57:28;;;;;;;;;49.75;42.00;7.30;86.30;;;;;;5075834;28;8785;-69
2021/12/26 10:59:59;;;;;;;;;50.75;42.00;7.50;85.90;;;;;;5075723;28;8773;-67
2021/12/26 11:02:29;;;;;;;;;43.00;37.75;7.50;84.20;;;;;;5075721;28;8765;-68
2021/12/26 11:05:03;;;;;;;;;51.75;43.75;7.30;85.90;;;;;;5071934;28;8791;-64
2021/12/26 11:07:38;;;;;;;;;68.25;55.00;7.70;84.10;;;;;;5074945;28;8819;-66
2021/12/26 11:10:13;;;;;;;;;74.00;58.25;7.70;86.30;;;;;;5075414;28;8770;-66
2021/12/26 11:12:46;;;;;;;;;64.75;53.25;8.00;83.70;;;;;;5075754;28;9420;-66
2021/12/26 11:15:14;;;;;;;;;62.00;48.75;8.20;81.70;;;;;;5075427;28;8946;-66
2021/12/26 11:17:47;;;;;;;;;52.50;41.50;8.20;78.50;;;;;;5075591;28;8792;-66
2021/12/26 11:20:26;;;;;;;;;45.25;38.00;7.60;82.40;;;;;;5075651;28;8786;-67
2021/12/26 11:22:53;;;;;;;;;54.25;44.00;7.20;87.20;;;;;;5075179;28;8746;-66
2021/12/26 11:25:20;;;;;;;;;53.75;43.00;7.30;86.40;;;;;;5075471;28;8942;-66
2021/12/26 11:27:46;;;;;;;;;53.00;43.75;7.20;87.80;;;;;;5075176;28;8750;-66
2021/12/26 11:30:12;;;;;;;;;49.75;41.50;6.80;89.90;;;;;;5075022;28;8824;-66
2021/12/26 11:32:39;;;;;;;;;51.25;44.75;6.80;90.60;;;;;;5066605;28;8774;-68
2021/12/26 11:35:07;;;;;;;;;47.50;40.50;6.80;90.80;;;;;;5067365;28;8770;-65
2021/12/26 11:37:35;;;;;;;;;53.00;44.75;6.80;91.50;;;;;;5075195;28;8899;-66
2021/12/26 11:40:03;;;;;;;;;51.50;41.00;7.30;89.30;;;;;;5075120;28;8766;-66
2021/12/26 11:42:51;;;;;;;;;55.50;46.75;7.40;85.30;;;;;;5075066;28;8780;-66
2021/12/26 11:45:53;;;;;;;;;58.25;43.00;7.50;85.40;;;;;;5066707;28;8768;-66
2021/12/26 11:48:44;;;;;;;;;62.25;47.00;7.70;82.80;;;;;;5060219;28;8758;-66
2021/12/26 11:51:41;;;;;;;;;59.00;46.50;7.90;82.50;;;;;;5074880;28;8797;-66
2021/12/26 11:54:42;;;;;;;;;61.75;52.00;8.10;80.50;;;;;;5067710;28;8906;-66
2021/12/26 11:57:29;;;;;;;;;64.25;54.50;8.50;78.30;;;;;;5040371;28;8776;-66
2021/12/26 12:00:13;;;;;;;;;49.50;42.00;8.40;77.90;;;;;;5061522;28;8798;-65
2021/12/26 12:02:51;;;;;;;;;56.50;45.25;8.00;79.10;;;;;;5074038;28;8754;-65
2021/12/26 12:05:38;;;;;;;;;50.50;43.00;7.90;80.80;;;;;;5073516;28;8771;-67
2021/12/26 12:08:13;;;;;;;;;53.75;46.00;7.90;78.90;;;;;;5074348;28;8930;-67
2021/12/26 12:10:55;;;;;;;;;54.75;43.00;7.90;80.30;;;;;;5072366;28;8858;-66
2021/12/26 12:13:22;;;;;;;;;58.25;48.25;7.60;83.10;;;;;;5060663;28;8936;-66
2021/12/26 12:16:22;;;;;;;;;51.25;42.50;7.90;81.10;;;;;;5074342;28;8805;-67
2021/12/26 12:18:47;;;;;;;;;60.25;49.75;8.00;78.60;;;;;;5071465;28;8794;-66
2021/12/26 12:21:22;;;;;;;;;58.25;48.25;8.40;77.10;;;;;;5074534;28;8786;-67
2021/12/26 12:24:02;;;;;;;;;43.00;38.25;8.50;76.10;;;;;;5074220;28;8765;-67
2021/12/26 12:26:48;;;;;;;;;43.25;38.50;8.00;77.40;;;;;;5074106;28;8850;-66
2021/12/26 12:29:45;;;;;;;;;50.75;41.75;8.00;77.70;;;;;;5074052;28;8863;-65
2021/12/26 12:32:17;;;;;;;;;52.50;45.00;7.90;78.60;;;;;;5066280;28;8802;-66
2021/12/26 12:35:06;;;;;;;;;54.50;45.25;7.60;80.00;;;;;;5058326;28;8760;-67
2021/12/26 12:37:40;;;;;;;;;55.50;45.75;7.20;84.10;;;;;;5053910;28;8815;-66
2021/12/26 12:40:07;;;;;;;;;53.75;44.25;7.40;83.40;;;;;;5064863;28;8766;-67
2021/12/26 12:42:34;;;;;;;;;50.75;44.25;7.60;81.00;;;;;;5059321;28;8770;-66
2021/12/26 12:45:01;;;;;;;;;49.25;43.25;7.30;83.90;;;;;;5064548;28;8876;-67
2021/12/26 12:47:26;;;;;;;;;61.00;46.25;7.20;84.20;;;;;;5057219;28;9422;-66
2021/12/26 12:49:56;;;;;;;;;61.50;48.00;7.00;84.30;;;;;;5054124;28;8791;-68
2021/12/26 12:52:42;;;;;;;;;58.00;46.25;7.00;84.80;;;;;;5060394;28;8808;-63